createdAt,value
2018-05-03T00:00:38.207Z,8.10
2018-05-03T00:03:13.702Z,8.65
2018-05-03T00:05:48.632Z,8.10
2018-05-03T00:08:23.905Z,8.00
2018-05-03T00:11:00.097Z,7.62
2018-05-03T00:13:36.087Z,8.20
2018-05-03T00:16:12.592Z,9.10
2018-05-03T00:18:48.276Z,9.80
2018-05-03T00:21:25.194Z,9.43
2018-05-03T00:24:00.445Z,9.65
2018-05-03T00:26:35.413Z,9.80
2018-05-03T00:29:10.880Z,9.75
2018-05-03T00:31:47.428Z,10.07
2018-05-03T00:34:23.054Z,10.07
2018-05-03T00:36:58.962Z,10.05
2018-05-03T00:39:35.038Z,9.55
2018-05-03T00:42:11.511Z,9.85
2018-05-03T00:44:46.954Z,10.07
2018-05-03T00:47:23.816Z,10.38
2018-05-03T00:50:00.707Z,11.07
2018-05-03T00:52:38.268Z,10.40
2018-05-03T00:55:13.392Z,11.52
2018-05-03T00:57:49.481Z,10.57
2018-05-03T01:00:26.368Z,9.80
2018-05-03T01:03:01.424Z,10.98
2018-05-03T01:05:39.211Z,10.55
2018-05-03T01:08:16.092Z,10.75
2018-05-03T01:10:51.949Z,11.60
2018-05-03T01:13:26.836Z,11.90
2018-05-03T01:16:02.708Z,10.93
2018-05-03T01:18:39.264Z,11.50
2018-05-03T01:21:14.505Z,12.20
2018-05-03T01:23:50.811Z,14.68
2018-05-03T01:26:27.320Z,13.70
2018-05-03T01:29:03.552Z,13.48
2018-05-03T01:31:39.994Z,14.15
2018-05-03T01:34:15.436Z,13.80
2018-05-03T01:36:51.533Z,15.05
2018-05-03T01:39:27.761Z,15.65
2018-05-03T01:42:02.977Z,15.40
2018-05-03T01:44:39.424Z,14.52
2018-05-03T01:47:14.790Z,14.52
2018-05-03T01:49:50.042Z,14.57
2018-05-03T01:52:25.370Z,16.90
2018-05-03T01:55:02.011Z,14.98
2018-05-03T01:57:38.720Z,15.48
2018-05-03T02:00:14.845Z,16.60
2018-05-03T02:02:50.389Z,16.23
2018-05-03T02:05:25.633Z,17.02
2018-05-03T02:08:03.424Z,20.58
2018-05-03T02:10:39.263Z,18.02
2018-05-03T02:13:14.748Z,18.85
2018-05-03T02:15:50.900Z,20.27
2018-05-03T02:18:27.468Z,19.15
2018-05-03T02:21:03.714Z,19.60
2018-05-03T02:23:40.128Z,18.95
2018-05-03T02:26:15.310Z,19.65
2018-05-03T02:28:51.425Z,20.73
2018-05-03T02:31:26.837Z,20.52
2018-05-03T02:34:01.975Z,19.35
2018-05-03T02:36:37.950Z,19.58
2018-05-03T02:39:13.480Z,22.92
2018-05-03T02:41:48.928Z,21.42
2018-05-03T02:44:25.593Z,23.45
2018-05-03T02:47:00.957Z,21.50
2018-05-03T02:49:37.239Z,21.67
2018-05-03T02:52:12.341Z,21.98
2018-05-03T02:54:48.537Z,22.48
2018-05-03T02:57:34.596Z,21.73
2018-05-03T03:00:26.498Z,21.42
2018-05-03T03:03:18.794Z,19.37
2018-05-03T03:06:08.702Z,20.25
2018-05-03T03:12:38.820Z,21.23
2018-05-03T03:15:31.544Z,22.70
2018-05-03T03:18:18.201Z,22.02
2018-05-03T03:21:10.485Z,20.75
2018-05-03T03:24:02.168Z,20.52
2018-05-03T03:27:06.544Z,21.67
2018-05-03T03:29:54.164Z,21.62
2018-05-03T03:32:40.859Z,21.55
2018-05-03T03:38:42.365Z,23.70
2018-05-03T03:41:30.266Z,24.25
2018-05-03T03:44:16.673Z,25.55
2018-05-03T03:46:51.702Z,22.87
2018-05-03T03:49:29.040Z,22.95
2018-05-03T03:52:04.117Z,23.15
2018-05-03T03:54:39.118Z,22.92
2018-05-03T03:57:16.214Z,22.87
2018-05-03T03:59:51.476Z,21.65
2018-05-03T04:02:27.037Z,23.27
2018-05-03T04:05:02.121Z,22.27
2018-05-03T04:07:37.308Z,21.58
2018-05-03T04:10:13.057Z,22.87
2018-05-03T04:12:48.534Z,24.98
2018-05-03T04:15:23.608Z,23.40
2018-05-03T04:18:09.841Z,23.45
2018-05-03T04:21:00.977Z,24.58
2018-05-03T04:23:47.052Z,23.70
2018-05-03T04:26:23.158Z,21.73
2018-05-03T04:28:58.647Z,21.77
2018-05-03T04:31:33.920Z,19.62
2018-05-03T04:34:09.249Z,21.62
2018-05-03T04:36:45.095Z,21.37
2018-05-03T04:39:20.579Z,22.45
2018-05-03T04:41:57.384Z,22.95
2018-05-03T04:44:33.616Z,24.05
2018-05-03T04:47:08.881Z,24.35
2018-05-03T04:49:45.225Z,24.45
2018-05-03T04:52:20.115Z,26.12
2018-05-03T04:54:56.700Z,24.92
2018-05-03T04:57:32.521Z,22.27
2018-05-03T05:00:08.156Z,22.60
2018-05-03T05:02:44.599Z,25.08
2018-05-03T05:05:19.670Z,24.55
2018-05-03T05:07:56.229Z,23.70
2018-05-03T05:10:32.487Z,22.20
2018-05-03T05:13:08.937Z,22.35
2018-05-03T05:15:45.446Z,20.42
2018-05-03T05:18:22.148Z,19.60
2018-05-03T05:20:58.648Z,19.08
2018-05-03T05:23:35.296Z,19.50
2018-05-03T05:26:10.681Z,19.70
2018-05-03T05:28:46.675Z,16.92
2018-05-03T05:31:22.184Z,18.40
2018-05-03T05:33:57.517Z,17.90
2018-05-03T05:36:32.802Z,16.20
2018-05-03T05:39:08.628Z,17.17
2018-05-03T05:41:43.777Z,19.33
2018-05-03T05:44:19.629Z,18.98
2018-05-03T05:46:56.092Z,16.58
2018-05-03T05:49:33.216Z,17.73
2018-05-03T05:52:10.579Z,17.33
2018-05-03T05:54:48.269Z,16.27
2018-05-03T05:57:24.216Z,20.05
2018-05-03T05:59:59.751Z,18.00
2018-05-03T06:02:37.320Z,22.48
2018-05-03T06:05:13.868Z,20.92
2018-05-03T06:07:50.079Z,19.98
2018-05-03T06:10:26.443Z,18.02
2018-05-03T06:13:02.805Z,19.58
2018-05-03T06:15:41.592Z,18.85
2018-05-03T06:18:17.478Z,20.35
2018-05-03T06:20:53.356Z,19.92
2018-05-03T06:23:30.095Z,20.85
2018-05-03T06:26:05.754Z,18.17
2018-05-03T06:28:42.632Z,18.87
2018-05-03T06:31:20.437Z,18.50
2018-05-03T06:33:55.888Z,14.93
2018-05-03T06:36:31.484Z,17.42
2018-05-03T06:39:07.999Z,16.70
2018-05-03T06:41:43.053Z,17.35
2018-05-03T06:44:18.386Z,17.90
2018-05-03T06:46:55.816Z,16.37
2018-05-03T06:49:31.605Z,17.37
2018-05-03T06:52:06.451Z,16.75
2018-05-03T06:54:41.983Z,17.73
2018-05-03T06:57:19.460Z,17.55
2018-05-03T06:59:56.539Z,17.45
2018-05-03T07:02:33.457Z,16.90
2018-05-03T07:05:09.212Z,17.60
2018-05-03T07:07:45.308Z,18.10
2018-05-03T07:10:20.597Z,17.90
2018-05-03T07:12:56.576Z,17.45
2018-05-03T07:15:33.241Z,17.92
2018-05-03T07:18:08.892Z,17.12
2018-05-03T07:20:44.343Z,15.65
2018-05-03T07:23:21.028Z,17.05
2018-05-03T07:25:56.241Z,18.12
2018-05-03T07:28:33.734Z,16.98
2018-05-03T07:31:09.969Z,17.85
2018-05-03T07:33:45.829Z,17.35
2018-05-03T07:36:22.072Z,17.05
2018-05-03T07:39:00.569Z,18.05
2018-05-03T07:41:36.464Z,16.90
2018-05-03T07:44:12.032Z,17.58
2018-05-03T07:46:48.244Z,16.10
2018-05-03T07:49:23.850Z,17.42
2018-05-03T07:51:59.129Z,16.02
2018-05-03T07:54:34.629Z,16.10
2018-05-03T07:57:11.777Z,17.23
2018-05-03T07:59:47.393Z,17.75
2018-05-03T08:02:23.313Z,16.08
2018-05-03T08:04:59.190Z,16.02
2018-05-03T08:07:35.532Z,16.75
2018-05-03T08:10:10.744Z,17.17
2018-05-03T08:12:48.966Z,14.70
2018-05-03T08:15:24.305Z,16.77
2018-05-03T08:18:00.426Z,15.13
2018-05-03T08:20:36.414Z,15.85
2018-05-03T08:23:11.290Z,16.15
2018-05-03T08:25:46.177Z,15.20
2018-05-03T08:28:25.378Z,16.50
2018-05-03T08:31:01.492Z,15.90
2018-05-03T08:33:36.538Z,15.50
2018-05-03T08:36:12.520Z,15.35
2018-05-03T08:38:49.303Z,16.10
2018-05-03T08:41:25.252Z,13.63
2018-05-03T08:44:02.231Z,14.87
2018-05-03T08:46:38.548Z,15.10
2018-05-03T08:49:15.844Z,13.80
2018-05-03T08:51:51.008Z,14.05
2018-05-03T08:54:27.341Z,13.50
2018-05-03T08:57:03.787Z,14.83
2018-05-03T08:59:40.361Z,14.17
2018-05-03T09:02:16.467Z,13.83
2018-05-03T09:04:52.493Z,13.57
2018-05-03T09:07:29.491Z,12.80
2018-05-03T09:10:05.677Z,12.80
2018-05-03T09:12:42.204Z,12.43
2018-05-03T09:15:18.617Z,12.57
2018-05-03T09:17:55.540Z,12.87
2018-05-03T09:20:31.952Z,11.67
2018-05-03T09:23:07.744Z,11.90
2018-05-03T09:25:44.243Z,12.30
2018-05-03T09:28:20.407Z,12.53
2018-05-03T09:30:56.138Z,12.27
2018-05-03T09:33:32.192Z,11.87
2018-05-03T09:36:08.376Z,11.53
2018-05-03T09:38:44.605Z,12.90
2018-05-03T09:41:20.532Z,13.60
2018-05-03T09:43:57.528Z,12.47
2018-05-03T09:46:34.094Z,18.23
2018-05-03T09:49:10.092Z,13.52
2018-05-03T09:51:45.946Z,13.83
2018-05-03T09:54:21.835Z,13.73
2018-05-03T09:56:58.698Z,12.98
2018-05-03T09:59:35.849Z,12.10
2018-05-03T10:02:12.460Z,14.23
2018-05-03T10:04:48.092Z,14.13
2018-05-03T10:07:23.486Z,13.55
2018-05-03T10:10:00.597Z,14.27
2018-05-03T10:12:36.527Z,14.20
2018-05-03T10:15:13.935Z,15.05
2018-05-03T10:17:49.478Z,13.63
2018-05-03T10:20:24.733Z,13.47
2018-05-03T10:23:00.380Z,14.30
2018-05-03T10:25:36.137Z,12.20
2018-05-03T10:28:11.740Z,12.63
2018-05-03T10:30:47.882Z,13.27
2018-05-03T10:33:23.501Z,15.17
2018-05-03T10:35:58.921Z,13.93
2018-05-03T10:38:35.787Z,12.60
2018-05-03T10:41:12.926Z,13.20
2018-05-03T10:43:48.846Z,13.48
2018-05-03T10:46:25.629Z,14.23
2018-05-03T10:49:00.885Z,13.97
2018-05-03T10:51:37.314Z,13.15
2018-05-03T10:54:14.530Z,13.13
2018-05-03T10:56:50.373Z,14.43
2018-05-03T10:59:27.002Z,13.73
2018-05-03T11:02:03.188Z,13.83
2018-05-03T11:04:39.058Z,13.32
2018-05-03T11:07:15.501Z,13.70
2018-05-03T11:09:52.619Z,13.67
2018-05-03T11:12:29.177Z,12.75
2018-05-03T11:15:05.449Z,12.85
2018-05-03T11:17:42.681Z,12.88
2018-05-03T11:20:20.154Z,12.23
2018-05-03T11:22:57.236Z,12.85
2018-05-03T11:25:34.668Z,12.63
2018-05-03T11:28:10.729Z,12.57
2018-05-03T11:30:54.325Z,11.23
2018-05-03T11:33:39.183Z,13.07
2018-05-03T11:36:21.445Z,12.60
2018-05-03T11:38:59.848Z,12.87
2018-05-03T11:41:35.143Z,12.50
2018-05-03T11:44:12.825Z,12.57
2018-05-03T11:46:53.547Z,12.50
2018-05-03T11:49:32.498Z,13.17
2018-05-03T11:52:13.405Z,12.67
2018-05-03T11:54:55.495Z,12.93
2018-05-03T11:57:33.242Z,12.70
2018-05-03T12:00:09.962Z,13.67
2018-05-03T12:02:52.653Z,13.67
2018-05-03T12:05:30.269Z,12.63
2018-05-03T12:08:06.693Z,12.13
2018-05-03T12:10:44.479Z,11.37
2018-05-03T12:13:21.160Z,11.63
2018-05-03T12:15:57.555Z,11.70
2018-05-03T12:18:33.601Z,13.17
2018-05-03T12:21:08.841Z,12.37
2018-05-03T12:23:45.115Z,11.83
2018-05-03T12:26:20.137Z,13.50
2018-05-03T12:28:56.300Z,13.27
2018-05-03T12:31:32.763Z,12.60
2018-05-03T12:34:08.101Z,13.97
2018-05-03T12:36:44.055Z,12.33
2018-05-03T12:39:20.985Z,12.37
2018-05-03T12:41:56.585Z,14.00
2018-05-03T12:44:33.196Z,13.67
2018-05-03T12:47:10.279Z,13.50
2018-05-03T12:49:46.292Z,14.40
2018-05-03T12:52:21.477Z,13.40
2018-05-03T12:54:57.747Z,12.53
2018-05-03T12:57:34.761Z,13.47
2018-05-03T13:00:11.241Z,14.13
2018-05-03T13:02:48.975Z,13.30
2018-05-03T13:05:26.292Z,12.70
2018-05-03T13:08:06.085Z,14.03
2018-05-03T13:10:47.091Z,12.93
2018-05-03T13:13:21.812Z,13.13
2018-05-03T13:15:58.814Z,14.37
2018-05-03T13:18:38.199Z,13.73
2018-05-03T13:21:14.536Z,14.10
2018-05-03T13:23:52.891Z,15.07
2018-05-03T13:26:28.896Z,14.90
2018-05-03T13:29:05.141Z,14.50
2018-05-03T13:31:43.037Z,14.77
2018-05-03T13:34:26.773Z,15.50
2018-05-03T13:37:03.105Z,15.20
2018-05-03T13:39:39.364Z,14.90
2018-05-03T13:42:15.220Z,14.70
2018-05-03T13:44:51.157Z,15.07
2018-05-03T13:47:28.786Z,15.23
2018-05-03T13:50:05.157Z,14.50
2018-05-03T13:52:41.910Z,14.20
2018-05-03T13:55:21.468Z,15.67
2018-05-03T13:57:58.207Z,14.83
2018-05-03T14:00:35.066Z,14.97
2018-05-03T14:03:11.201Z,14.77
2018-05-03T14:05:48.798Z,14.00
2018-05-03T14:08:24.597Z,13.10
2018-05-03T14:11:00.016Z,13.83
2018-05-03T14:13:35.491Z,13.80
2018-05-03T14:16:12.957Z,13.27
2018-05-03T14:18:48.361Z,12.73
2018-05-03T14:21:23.672Z,12.37
2018-05-03T14:24:00.643Z,12.73
2018-05-03T14:26:38.630Z,11.67
2018-05-03T14:29:17.870Z,14.07
2018-05-03T14:31:57.307Z,15.17
2018-05-03T14:34:34.547Z,14.60
2018-05-03T14:37:13.389Z,14.33
2018-05-03T14:39:49.215Z,15.20
2018-05-03T14:42:25.200Z,15.17
2018-05-03T14:45:01.381Z,14.47
2018-05-03T14:47:37.815Z,13.70
2018-05-03T14:50:15.381Z,15.40
2018-05-03T14:52:50.419Z,14.40
2018-05-03T14:55:25.485Z,14.63
2018-05-03T14:58:03.624Z,16.60
2018-05-03T15:00:39.870Z,13.50
2018-05-03T15:03:16.374Z,14.27
2018-05-03T15:05:54.037Z,14.93
2018-05-03T15:08:30.261Z,15.20
2018-05-03T15:11:05.340Z,15.87
2018-05-03T15:13:41.451Z,13.87
2018-05-03T15:16:17.361Z,15.07
2018-05-03T15:18:53.801Z,14.70
2018-05-03T15:21:29.973Z,15.57
2018-05-03T15:24:06.496Z,14.40
2018-05-03T15:26:42.583Z,14.53
2018-05-03T15:29:17.440Z,14.23
2018-05-03T15:31:54.161Z,13.03
2018-05-03T15:34:30.661Z,13.90
2018-05-03T15:37:07.542Z,13.10
2018-05-03T15:39:43.418Z,13.77
2018-05-03T15:42:19.148Z,12.87
2018-05-03T15:44:54.106Z,14.30
2018-05-03T15:47:32.500Z,14.73
2018-05-03T15:50:07.497Z,14.17
2018-05-03T15:52:42.970Z,13.20
2018-05-03T15:55:19.033Z,11.50
2018-05-03T15:57:54.740Z,12.90
2018-05-03T16:00:30.413Z,11.63
2018-05-03T16:03:05.999Z,11.80
2018-05-03T16:05:42.416Z,11.53
2018-05-03T16:08:18.084Z,10.47
2018-05-03T16:10:53.101Z,10.03
2018-05-03T16:13:28.089Z,9.00
2018-05-03T16:16:02.928Z,10.17
2018-05-03T16:18:39.797Z,9.07
2018-05-03T16:21:16.150Z,9.07
2018-05-03T16:23:51.277Z,9.77
2018-05-03T16:26:27.488Z,8.17
2018-05-03T16:29:04.748Z,8.80
2018-05-03T16:31:40.936Z,7.97
2018-05-03T16:34:16.747Z,7.67
2018-05-03T16:36:51.804Z,7.30
2018-05-03T16:39:28.547Z,8.33
2018-05-03T16:42:03.749Z,8.53
2018-05-03T16:44:39.129Z,7.90
2018-05-03T16:47:14.046Z,9.33
2018-05-03T16:49:49.653Z,9.63
2018-05-03T16:52:26.123Z,8.77
2018-05-03T16:55:03.370Z,8.73
2018-05-03T16:57:39.920Z,9.07
2018-05-03T17:00:15.165Z,8.37
2018-05-03T17:02:51.641Z,10.80
2018-05-03T17:05:27.401Z,15.57
2018-05-03T17:08:02.285Z,15.27
2018-05-03T17:10:39.523Z,15.47
2018-05-03T17:13:15.686Z,14.93
2018-05-03T17:15:52.157Z,14.90
2018-05-03T17:18:28.027Z,16.07
2018-05-03T17:21:04.315Z,16.13
2018-05-03T17:23:40.937Z,16.80
2018-05-03T17:26:17.257Z,15.90
2018-05-03T17:28:53.429Z,15.00
2018-05-03T17:31:31.849Z,14.23
2018-05-03T17:34:07.577Z,17.73
2018-05-03T17:36:42.947Z,14.23
2018-05-03T17:39:21.598Z,13.10
2018-05-03T17:41:58.545Z,12.00
2018-05-03T17:44:35.337Z,14.07
2018-05-03T17:47:10.602Z,15.43
2018-05-03T17:49:45.453Z,14.83
2018-05-03T17:52:21.094Z,17.10
2018-05-03T17:54:58.347Z,16.07
2018-05-03T17:57:33.788Z,15.83
2018-05-03T18:00:10.980Z,15.70
2018-05-03T18:02:46.696Z,15.87
2018-05-03T18:05:23.042Z,15.80
2018-05-03T18:07:59.257Z,16.17
2018-05-03T18:10:35.059Z,16.97
2018-05-03T18:13:10.435Z,17.07
2018-05-03T18:15:46.246Z,16.33
2018-05-03T18:18:23.164Z,16.93
2018-05-03T18:20:59.208Z,17.00
2018-05-03T18:23:35.706Z,15.00
2018-05-03T18:26:12.957Z,16.97
2018-05-03T18:28:49.341Z,17.30
2018-05-03T18:31:25.473Z,16.17
2018-05-03T18:34:00.933Z,17.07
2018-05-03T18:36:37.012Z,17.17
2018-05-03T18:39:14.402Z,16.97
2018-05-03T18:41:49.469Z,19.20
2018-05-03T18:44:26.192Z,17.83
2018-05-03T18:47:01.893Z,18.00
2018-05-03T18:49:37.459Z,18.00
2018-05-03T18:52:13.077Z,17.53
2018-05-03T18:57:33.908Z,18.13
2018-05-03T19:00:09.251Z,18.83
2018-05-03T19:02:44.952Z,17.17
2018-05-03T19:05:21.527Z,18.40
2018-05-03T19:07:59.198Z,16.60
2018-05-03T19:10:36.190Z,17.20
2018-05-03T19:13:11.417Z,18.83
2018-05-03T19:15:48.112Z,18.20
2018-05-03T19:18:24.619Z,17.47
2018-05-03T19:21:00.556Z,20.55
2018-05-03T19:23:36.964Z,22.50
2018-05-03T19:26:13.284Z,24.67
2018-05-03T19:28:49.282Z,23.97
2018-05-03T19:31:24.475Z,23.23
2018-05-03T19:34:00.788Z,20.92
2018-05-03T19:36:38.100Z,16.47
2018-05-03T19:39:13.517Z,16.80
2018-05-03T19:41:50.706Z,15.60
2018-05-03T19:44:29.246Z,18.30
2018-05-03T19:47:03.761Z,17.20
2018-05-03T19:49:38.944Z,15.30
2018-05-03T19:52:14.700Z,12.50
2018-05-03T19:54:51.036Z,9.23
2018-05-03T19:57:27.697Z,7.40
2018-05-03T20:00:04.381Z,7.80
2018-05-03T20:02:39.763Z,7.63
2018-05-03T20:05:14.573Z,6.10
2018-05-03T20:07:50.247Z,6.70
2018-05-03T20:10:29.536Z,5.77
2018-05-03T20:13:05.034Z,5.70
2018-05-03T20:15:42.279Z,6.30
2018-05-03T20:18:24.781Z,6.03
2018-05-03T20:21:00.909Z,5.20
2018-05-03T20:23:36.174Z,5.50
2018-05-03T20:26:12.360Z,6.43
2018-05-03T20:28:50.117Z,5.80
2018-05-03T20:31:24.995Z,5.43
2018-05-03T20:34:04.053Z,6.00
2018-05-03T20:36:39.288Z,5.70
2018-05-03T20:39:15.434Z,5.67
2018-05-03T20:41:51.687Z,6.73
2018-05-03T20:44:27.188Z,7.10
2018-05-03T20:47:02.361Z,6.57
2018-05-03T20:49:38.490Z,6.83
2018-05-03T20:52:14.416Z,7.60
2018-05-03T20:54:51.688Z,7.70
2018-05-03T20:57:26.898Z,8.20
2018-05-03T21:00:02.749Z,7.78
2018-05-03T21:02:38.065Z,8.48
2018-05-03T21:05:15.017Z,7.87
2018-05-03T21:07:50.526Z,8.32
2018-05-03T21:10:26.193Z,8.27
2018-05-03T21:13:01.340Z,8.27
2018-05-03T21:15:36.289Z,8.15
2018-05-03T21:18:11.406Z,7.57
2018-05-03T21:20:46.737Z,6.90
2018-05-03T21:23:23.553Z,6.32
2018-05-03T21:26:00.075Z,5.25
2018-05-03T21:28:36.519Z,5.93
2018-05-03T21:31:12.156Z,4.60
2018-05-03T21:33:47.711Z,4.50
2018-05-03T21:36:24.096Z,4.03
2018-05-03T21:38:58.650Z,4.27
2018-05-03T21:41:33.996Z,3.97
2018-05-03T21:44:10.382Z,3.60
2018-05-03T21:46:45.836Z,3.65
2018-05-03T21:49:20.996Z,3.17
2018-05-03T21:51:56.389Z,3.00
2018-05-03T21:54:32.930Z,2.70
2018-05-03T21:57:09.032Z,2.87
2018-05-03T21:59:44.572Z,2.97
2018-05-03T22:02:20.761Z,3.20
2018-05-03T22:04:57.234Z,3.25
2018-05-03T22:07:33.724Z,2.70
2018-05-03T22:10:09.666Z,2.80
2018-05-03T22:12:45.525Z,2.97
2018-05-03T22:15:21.981Z,2.12
2018-05-03T22:17:58.160Z,2.63
2018-05-03T22:20:33.136Z,2.50
2018-05-03T22:23:08.457Z,2.60
2018-05-03T22:25:45.452Z,3.15
2018-05-03T22:28:20.649Z,2.67
2018-05-03T22:30:56.899Z,2.20
2018-05-03T22:33:33.347Z,2.78
2018-05-03T22:36:09.959Z,2.70
2018-05-03T22:38:45.443Z,2.60
2018-05-03T22:41:20.891Z,2.47
2018-05-03T22:43:56.296Z,2.47
2018-05-03T22:46:31.246Z,2.37
2018-05-03T22:49:06.283Z,1.92
2018-05-03T22:51:42.745Z,2.28
2018-05-03T22:54:18.740Z,2.00
2018-05-03T22:56:55.932Z,2.62
2018-05-03T22:59:31.606Z,2.00
2018-05-03T23:02:06.728Z,2.20
2018-05-03T23:04:43.074Z,1.75
2018-05-03T23:07:19.996Z,1.90
2018-05-03T23:09:56.940Z,1.98
2018-05-03T23:12:33.283Z,2.00
2018-05-03T23:15:08.514Z,1.67
2018-05-03T23:17:43.820Z,1.90
2018-05-03T23:20:19.729Z,1.75
2018-05-03T23:22:57.344Z,1.80
2018-05-03T23:25:32.356Z,1.87
2018-05-03T23:28:07.424Z,2.10
2018-05-03T23:30:44.420Z,1.70
2018-05-03T23:33:20.414Z,2.20
2018-05-03T23:35:57.199Z,1.80
2018-05-03T23:38:32.908Z,1.70
2018-05-03T23:41:11.188Z,2.05
2018-05-03T23:43:47.858Z,1.65
2018-05-03T23:46:25.616Z,1.90
2018-05-03T23:49:02.098Z,1.75
2018-05-03T23:51:37.191Z,2.70
2018-05-03T23:54:13.163Z,1.80
2018-05-03T23:56:49.936Z,1.70
2018-05-03T23:59:25.125Z,1.80
